This is the latest recevied weather packets stored in our database for station/object KD8OZS. If no packets are shown the sender has not sent any weather packets the latest 10 day(s).
| Time | Temp. | Humidity | Pressure | Rain* | Wind** | Luminosity | Snow |
|---|---|---|---|---|---|---|---|
| 1787666289 | 20.56° C | 83% | 1013 hPa | 0 mm | - | 626 W/m² | - |
| 1787665984 | 20° C | 83% | 1012.9 hPa | 0 mm | - | 609 W/m² | - |
| 1787665679 | 20° C | 83% | 1012.9 hPa | 0 mm | - | 589 W/m² | - |
| 1787665374 | 20.56° C | 81% | 1012.9 hPa | 0 mm | - | 561 W/m² | - |
| 1787665070 | 20.56° C | 80% | 1012.9 hPa | 0 mm | - | 567 W/m² | - |
| 1787664767 | 19.44° C | 83% | 1012.7 hPa | 0 mm | - | 546 W/m² | - |
| 1787664466 | 20.56° C | 80% | 1012.8 hPa | 0 mm | - | 509 W/m² | - |
| 1787664161 | 20.56° C | 83% | 1012.7 hPa | 0 mm | - | 489 W/m² | - |
| 1787663860 | 20° C | 83% | 1012.6 hPa | 0 mm | - | 482 W/m² | - |
| 1787663556 | 18.89° C | 86% | 1012.6 hPa | 0 mm | - | 477 W/m² | - |
| 1787663251 | 18.89° C | 85% | 1012.7 hPa | 0 mm | - | 569 W/m² | - |
| 1787662948 | 17.78° C | 88% | 1012.5 hPa | 0 mm | - | 701 W/m² | - |
| 1787662647 | 17.22° C | 93% | 1012.4 hPa | 0 mm | - | 140 W/m² | - |
| 1787662342 | 16.67° C | 97% | 1012.4 hPa | 0 mm | - | 102 W/m² | - |
| 1787662038 | 16.11° C | 98% | 1012.2 hPa | 0 mm | - | 81 W/m² | - |
| 1787661735 | 16.11° C | 98% | 1012.4 hPa | 0 mm | - | 76 W/m² | - |
| 1787661433 | 15.56° C | 99% | 1012.5 hPa | 0 mm | - | 71 W/m² | - |
| 1787661127 | 15° C | 99% | 1012.7 hPa | 0 mm | - | 67 W/m² | - |
| 1787660825 | 15° C | 99% | 1012.4 hPa | 0 mm | - | 62 W/m² | - |
| 1787660521 | 14.44° C | 99% | 1012.4 hPa | 0 mm | - | 58 W/m² | - |
| 1787660221 | 14.44° C | 99% | 1012.3 hPa | 0 mm | - | 55 W/m² | - |
| 1787659916 | 13.89° C | 99% | 1012.4 hPa | 0 mm | - | 52 W/m² | - |
| 1787659612 | 13.89° C | 99% | 1012.5 hPa | 0 mm | - | 49 W/m² | - |
| 1787659309 | 12.78° C | 99% | 1012.5 hPa | 0 mm | - | 44 W/m² | - |
| 1787659003 | 12.22° C | 99% | 1012.5 hPa | 0 mm | - | 32 W/m² | - |
* Rain latest hour (hover to see other rain measurements)
** Current wind speed in m/s (hover to see current wind gust speed)